sensor_id;sensor_type;location;lat;lon;timestamp;pressure;altitude;pressure_sealevel;temperature;humidity
10606;BME280;5350;42.698;23.148;2022-11-15T00:00:04;94209.34;;;4.64;100.00
10606;BME280;5350;42.698;23.148;2022-11-15T00:02:31;94210.16;;;4.65;100.00
10606;BME280;5350;42.698;23.148;2022-11-15T00:04:58;94208.00;;;4.62;100.00
10606;BME280;5350;42.698;23.148;2022-11-15T00:07:26;94210.31;;;4.58;100.00
10606;BME280;5350;42.698;23.148;2022-11-15T00:09:53;94210.31;;;4.58;100.00
10606;BME280;5350;42.698;23.148;2022-11-15T00:12:20;94208.66;;;4.69;100.00
10606;BME280;5350;42.698;23.148;2022-11-15T00:14:46;94210.13;;;4.81;100.00
10606;BME280;5350;42.698;23.148;2022-11-15T00:17:13;94208.53;;;4.80;100.00
10606;BME280;5350;42.698;23.148;2022-11-15T00:19:39;94200.88;;;4.74;100.00
10606;BME280;5350;42.698;23.148;2022-11-15T00:22:06;94202.38;;;4.70;100.00
10606;BME280;5350;42.698;23.148;2022-11-15T00:24:34;94207.69;;;4.75;100.00
10606;BME280;5350;42.698;23.148;2022-11-15T00:27:01;94209.66;;;4.68;100.00
10606;BME280;5350;42.698;23.148;2022-11-15T00:29:28;94189.53;;;4.30;100.00
10606;BME280;5350;42.698;23.148;2022-11-15T00:31:54;94202.97;;;4.39;100.00
10606;BME280;5350;42.698;23.148;2022-11-15T00:34:21;94208.88;;;4.51;100.00
10606;BME280;5350;42.698;23.148;2022-11-15T00:36:48;94200.44;;;4.44;100.00
10606;BME280;5350;42.698;23.148;2022-11-15T00:39:14;94202.72;;;4.40;100.00
10606;BME280;5350;42.698;23.148;2022-11-15T00:41:42;94198.44;;;4.51;100.00
10606;BME280;5350;42.698;23.148;2022-11-15T00:44:09;94199.25;;;4.51;100.00
10606;BME280;5350;42.698;23.148;2022-11-15T00:46:36;94194.84;;;4.52;100.00
10606;BME280;5350;42.698;23.148;2022-11-15T00:49:02;94200.09;;;4.57;100.00
10606;BME280;5350;42.698;23.148;2022-11-15T00:51:29;94189.63;;;4.52;100.00
10606;BME280;5350;42.698;23.148;2022-11-15T00:53:56;94188.22;;;4.61;100.00
10606;BME280;5350;42.698;23.148;2022-11-15T00:56:22;94189.84;;;4.67;100.00
10606;BME280;5350;42.698;23.148;2022-11-15T00:58:50;94185.59;;;4.61;100.00
10606;BME280;5350;42.698;23.148;2022-11-15T01:01:17;94177.94;;;4.54;100.00
10606;BME280;5350;42.698;23.148;2022-11-15T01:03:44;94176.84;;;4.50;100.00
10606;BME280;5350;42.698;23.148;2022-11-15T01:06:11;94180.75;;;4.53;100.00
10606;BME280;5350;42.698;23.148;2022-11-15T01:08:38;94178.72;;;4.55;100.00
10606;BME280;5350;42.698;23.148;2022-11-15T01:11:08;94184.16;;;4.53;100.00
10606;BME280;5350;42.698;23.148;2022-11-15T01:13:36;94147.56;;;4.27;100.00
10606;BME280;5350;42.698;23.148;2022-11-15T01:16:09;94190.88;;;4.66;100.00
10606;BME280;5350;42.698;23.148;2022-11-15T01:18:36;94194.53;;;4.65;100.00
10606;BME280;5350;42.698;23.148;2022-11-15T01:21:07;94189.47;;;4.42;100.00
10606;BME280;5350;42.698;23.148;2022-11-15T01:23:34;94182.22;;;4.44;100.00
10606;BME280;5350;42.698;23.148;2022-11-15T01:26:02;94183.06;;;4.49;100.00
10606;BME280;5350;42.698;23.148;2022-11-15T01:28:30;94174.56;;;4.37;100.00
10606;BME280;5350;42.698;23.148;2022-11-15T01:30:58;94176.66;;;4.40;100.00
10606;BME280;5350;42.698;23.148;2022-11-15T01:33:27;94167.03;;;4.41;100.00
10606;BME280;5350;42.698;23.148;2022-11-15T01:35:54;94170.75;;;4.45;100.00
10606;BME280;5350;42.698;23.148;2022-11-15T01:38:21;94171.09;;;4.32;100.00
10606;BME280;5350;42.698;23.148;2022-11-15T01:40:48;94180.47;;;4.33;100.00
10606;BME280;5350;42.698;23.148;2022-11-15T01:43:20;94169.19;;;4.27;100.00
10606;BME280;5350;42.698;23.148;2022-11-15T01:45:50;94166.34;;;4.29;100.00
10606;BME280;5350;42.698;23.148;2022-11-15T01:48:19;94167.03;;;4.41;100.00
10606;BME280;5350;42.698;23.148;2022-11-15T01:50:48;94165.47;;;4.07;100.00
10606;BME280;5350;42.698;23.148;2022-11-15T01:53:17;94169.72;;;4.13;100.00
10606;BME280;5350;42.698;23.148;2022-11-15T01:55:46;94170.34;;;4.03;100.00
10606;BME280;5350;42.698;23.148;2022-11-15T01:58:13;94163.56;;;4.19;100.00
10606;BME280;5350;42.698;23.148;2022-11-15T02:00:40;94166.75;;;4.21;100.00
10606;BME280;5350;42.698;23.148;2022-11-15T02:03:06;94168.63;;;4.25;100.00
10606;BME280;5350;42.698;23.148;2022-11-15T02:05:33;94170.91;;;4.38;100.00
10606;BME280;5350;42.698;23.148;2022-11-15T02:08:03;94162.72;;;4.30;100.00
10606;BME280;5350;42.698;23.148;2022-11-15T02:10:30;94164.69;;;4.39;100.00
10606;BME280;5350;42.698;23.148;2022-11-15T02:12:58;94165.00;;;4.43;100.00
10606;BME280;5350;42.698;23.148;2022-11-15T02:15:33;94164.78;;;4.44;100.00
10606;BME280;5350;42.698;23.148;2022-11-15T02:18:11;94159.78;;;4.43;100.00
10606;BME280;5350;42.698;23.148;2022-11-15T02:20:47;94162.94;;;4.45;100.00
10606;BME280;5350;42.698;23.148;2022-11-15T02:23:46;94154.09;;;4.46;100.00
10606;BME280;5350;42.698;23.148;2022-11-15T02:26:30;94154.56;;;4.43;100.00
10606;BME280;5350;42.698;23.148;2022-11-15T02:29:05;94141.66;;;4.31;100.00
10606;BME280;5350;42.698;23.148;2022-11-15T02:31:41;94140.75;;;4.26;100.00
10606;BME280;5350;42.698;23.148;2022-11-15T02:34:19;94124.69;;;4.12;100.00
10606;BME280;5350;42.698;23.148;2022-11-15T02:36:56;94146.50;;;4.28;100.00
10606;BME280;5350;42.698;23.148;2022-11-15T02:39:33;94133.44;;;4.23;100.00
10606;BME280;5350;42.698;23.148;2022-11-15T02:42:04;94147.66;;;4.32;100.00
10606;BME280;5350;42.698;23.148;2022-11-15T02:44:55;94149.84;;;4.40;100.00
10606;BME280;5350;42.698;23.148;2022-11-15T02:47:24;94154.97;;;4.35;100.00
10606;BME280;5350;42.698;23.148;2022-11-15T02:49:57;94148.56;;;4.42;100.00
10606;BME280;5350;42.698;23.148;2022-11-15T02:52:25;94146.28;;;4.46;100.00
10606;BME280;5350;42.698;23.148;2022-11-15T02:54:53;94154.50;;;4.38;100.00
10606;BME280;5350;42.698;23.148;2022-11-15T02:57:29;94157.66;;;4.23;100.00
10606;BME280;5350;42.698;23.148;2022-11-15T03:00:05;94153.31;;;4.12;100.00
10606;BME280;5350;42.698;23.148;2022-11-15T03:02:48;94157.41;;;4.08;100.00
10606;BME280;5350;42.698;23.148;2022-11-15T03:05:24;94151.41;;;3.91;100.00
10606;BME280;5350;42.698;23.148;2022-11-15T03:07:54;94150.97;;;4.11;100.00
10606;BME280;5350;42.698;23.148;2022-11-15T03:10:26;94146.38;;;4.18;100.00
10606;BME280;5350;42.698;23.148;2022-11-15T03:13:02;94144.47;;;4.13;100.00
10606;BME280;5350;42.698;23.148;2022-11-15T03:15:38;94153.06;;;4.14;100.00
10606;BME280;5350;42.698;23.148;2022-11-15T03:18:14;94144.72;;;4.12;100.00
10606;BME280;5350;42.698;23.148;2022-11-15T03:20:43;94135.34;;;4.11;100.00
10606;BME280;5350;42.698;23.148;2022-11-15T03:23:11;94141.81;;;4.08;100.00
10606;BME280;5350;42.698;23.148;2022-11-15T03:25:42;94139.91;;;4.20;100.00
10606;BME280;5350;42.698;23.148;2022-11-15T03:28:12;94135.41;;;4.16;100.00
10606;BME280;5350;42.698;23.148;2022-11-15T03:30:42;94131.69;;;4.12;100.00
10606;BME280;5350;42.698;23.148;2022-11-15T03:33:13;94133.75;;;4.26;100.00
10606;BME280;5350;42.698;23.148;2022-11-15T03:35:43;94138.78;;;4.33;100.00
10606;BME280;5350;42.698;23.148;2022-11-15T03:38:15;94123.66;;;4.30;100.00
10606;BME280;5350;42.698;23.148;2022-11-15T03:40:47;94123.16;;;4.33;100.00
10606;BME280;5350;42.698;23.148;2022-11-15T03:43:22;94127.66;;;4.37;100.00
10606;BME280;5350;42.698;23.148;2022-11-15T03:45:53;94127.97;;;4.41;100.00
10606;BME280;5350;42.698;23.148;2022-11-15T03:48:25;94120.72;;;4.43;100.00
10606;BME280;5350;42.698;23.148;2022-11-15T03:50:54;94118.44;;;4.46;100.00
10606;BME280;5350;42.698;23.148;2022-11-15T03:53:21;94121.34;;;4.50;100.00
10606;BME280;5350;42.698;23.148;2022-11-15T03:55:48;94117.31;;;4.59;100.00
10606;BME280;5350;42.698;23.148;2022-11-15T03:58:14;94120.84;;;4.53;100.00
10606;BME280;5350;42.698;23.148;2022-11-15T04:00:41;94113.78;;;4.48;100.00
10606;BME280;5350;42.698;23.148;2022-11-15T04:03:08;94115.16;;;4.56;100.00
10606;BME280;5350;42.698;23.148;2022-11-15T04:05:36;94116.28;;;4.60;100.00
10606;BME280;5350;42.698;23.148;2022-11-15T04:08:03;94117.13;;;4.65;100.00
10606;BME280;5350;42.698;23.148;2022-11-15T04:10:29;94100.88;;;4.58;100.00
10606;BME280;5350;42.698;23.148;2022-11-15T04:12:56;94076.00;;;4.51;100.00
10606;BME280;5350;42.698;23.148;2022-11-15T04:15:23;94117.56;;;4.79;100.00
10606;BME280;5350;42.698;23.148;2022-11-15T04:17:52;94109.81;;;4.84;100.00
10606;BME280;5350;42.698;23.148;2022-11-15T04:20:21;94108.31;;;4.88;100.00
10606;BME280;5350;42.698;23.148;2022-11-15T04:23:10;94116.34;;;4.86;100.00
10606;BME280;5350;42.698;23.148;2022-11-15T04:25:55;94112.94;;;4.86;100.00
10606;BME280;5350;42.698;23.148;2022-11-15T04:28:22;94118.41;;;4.84;100.00
10606;BME280;5350;42.698;23.148;2022-11-15T04:30:49;94107.28;;;4.89;100.00
10606;BME280;5350;42.698;23.148;2022-11-15T04:33:16;94109.94;;;4.94;100.00
10606;BME280;5350;42.698;23.148;2022-11-15T04:35:43;94112.59;;;4.99;100.00
10606;BME280;5350;42.698;23.148;2022-11-15T04:38:31;94109.34;;;5.09;100.00
10606;BME280;5350;42.698;23.148;2022-11-15T04:40:56;94112.25;;;5.12;100.00
10606;BME280;5350;42.698;23.148;2022-11-15T04:43:23;94115.41;;;5.14;100.00
10606;BME280;5350;42.698;23.148;2022-11-15T04:45:50;94109.72;;;5.17;100.00
10606;BME280;5350;42.698;23.148;2022-11-15T04:48:17;94101.66;;;5.24;100.00
10606;BME280;5350;42.698;23.148;2022-11-15T04:50:43;94111.88;;;5.25;100.00
10606;BME280;5350;42.698;23.148;2022-11-15T04:53:10;94114.41;;;5.20;100.00
10606;BME280;5350;42.698;23.148;2022-11-15T04:55:38;94115.03;;;5.27;100.00
10606;BME280;5350;42.698;23.148;2022-11-15T04:58:05;94115.06;;;5.32;100.00
10606;BME280;5350;42.698;23.148;2022-11-15T05:00:31;94116.13;;;5.31;100.00
10606;BME280;5350;42.698;23.148;2022-11-15T05:02:58;94114.00;;;5.28;100.00
10606;BME280;5350;42.698;23.148;2022-11-15T05:05:42;94111.19;;;5.35;100.00
10606;BME280;5350;42.698;23.148;2022-11-15T05:08:09;94108.84;;;5.33;100.00
10606;BME280;5350;42.698;23.148;2022-11-15T05:10:35;94108.34;;;5.36;100.00
10606;BME280;5350;42.698;23.148;2022-11-15T05:13:03;94102.63;;;5.39;100.00
10606;BME280;5350;42.698;23.148;2022-11-15T05:15:30;94105.53;;;5.43;100.00
10606;BME280;5350;42.698;23.148;2022-11-15T05:17:58;94102.19;;;5.47;100.00
10606;BME280;5350;42.698;23.148;2022-11-15T05:20:25;94101.47;;;5.52;100.00
10606;BME280;5350;42.698;23.148;2022-11-15T05:22:52;94104.91;;;5.57;100.00
10606;BME280;5350;42.698;23.148;2022-11-15T05:25:19;94107.03;;;5.60;100.00
10606;BME280;5350;42.698;23.148;2022-11-15T05:27:46;94101.81;;;5.60;100.00
10606;BME280;5350;42.698;23.148;2022-11-15T05:30:15;94094.72;;;5.56;100.00
10606;BME280;5350;42.698;23.148;2022-11-15T05:32:42;94095.97;;;5.48;100.00
10606;BME280;5350;42.698;23.148;2022-11-15T05:35:15;94095.00;;;5.59;100.00
10606;BME280;5350;42.698;23.148;2022-11-15T05:37:43;94101.66;;;5.45;100.00
10606;BME280;5350;42.698;23.148;2022-11-15T05:40:10;94099.41;;;5.32;100.00
10606;BME280;5350;42.698;23.148;2022-11-15T05:42:37;94100.47;;;5.31;100.00
10606;BME280;5350;42.698;23.148;2022-11-15T05:45:06;94101.25;;;5.32;100.00
10606;BME280;5350;42.698;23.148;2022-11-15T05:47:35;94104.16;;;5.35;100.00
10606;BME280;5350;42.698;23.148;2022-11-15T05:50:05;94107.56;;;5.36;100.00
10606;BME280;5350;42.698;23.148;2022-11-15T05:52:34;94117.78;;;5.42;100.00
10606;BME280;5350;42.698;23.148;2022-11-15T05:55:05;94112.53;;;5.37;100.00
10606;BME280;5350;42.698;23.148;2022-11-15T05:57:33;94126.38;;;5.38;100.00
10606;BME280;5350;42.698;23.148;2022-11-15T06:00:01;94122.53;;;5.45;100.00
10606;BME280;5350;42.698;23.148;2022-11-15T06:02:27;94120.97;;;5.44;100.00
10606;BME280;5350;42.698;23.148;2022-11-15T06:04:56;94116.22;;;5.41;100.00
10606;BME280;5350;42.698;23.148;2022-11-15T06:07:22;94124.88;;;5.47;100.00
10606;BME280;5350;42.698;23.148;2022-11-15T06:09:49;94123.69;;;5.54;100.00
10606;BME280;5350;42.698;23.148;2022-11-15T06:12:15;94112.56;;;5.42;100.00
10606;BME280;5350;42.698;23.148;2022-11-15T06:14:42;94110.13;;;5.09;100.00
10606;BME280;5350;42.698;23.148;2022-11-15T06:17:09;94114.41;;;5.20;100.00
10606;BME280;5350;42.698;23.148;2022-11-15T06:19:36;94103.91;;;5.37;100.00
10606;BME280;5350;42.698;23.148;2022-11-15T06:22:04;94109.47;;;5.45;100.00
10606;BME280;5350;42.698;23.148;2022-11-15T06:24:30;94111.38;;;5.50;100.00
10606;BME280;5350;42.698;23.148;2022-11-15T06:26:57;94112.72;;;5.57;100.00
10606;BME280;5350;42.698;23.148;2022-11-15T06:29:24;94112.00;;;5.62;100.00
10606;BME280;5350;42.698;23.148;2022-11-15T06:31:51;94114.16;;;5.70;100.00
10606;BME280;5350;42.698;23.148;2022-11-15T06:34:18;94117.56;;;5.71;100.00
10606;BME280;5350;42.698;23.148;2022-11-15T06:36:44;94117.50;;;5.65;100.00
10606;BME280;5350;42.698;23.148;2022-11-15T06:39:12;94109.44;;;5.67;100.00
10606;BME280;5350;42.698;23.148;2022-11-15T06:41:39;94119.09;;;5.66;100.00
10606;BME280;5350;42.698;23.148;2022-11-15T06:44:06;94109.38;;;5.62;100.00
10606;BME280;5350;42.698;23.148;2022-11-15T06:46:32;94122.63;;;5.55;100.00
10606;BME280;5350;42.698;23.148;2022-11-15T06:48:59;94114.06;;;5.33;100.00
10606;BME280;5350;42.698;23.148;2022-11-15T06:51:26;94108.84;;;5.33;100.00
10606;BME280;5350;42.698;23.148;2022-11-15T06:53:53;94105.19;;;5.34;100.00
10606;BME280;5350;42.698;23.148;2022-11-15T06:56:21;94106.59;;;5.42;100.00
10606;BME280;5350;42.698;23.148;2022-11-15T06:58:47;94103.25;;;5.46;100.00
10606;BME280;5350;42.698;23.148;2022-11-15T07:01:14;94098.31;;;5.50;100.00
10606;BME280;5350;42.698;23.148;2022-11-15T07:03:41;94101.28;;;5.58;100.00
10606;BME280;5350;42.698;23.148;2022-11-15T07:06:10;94108.66;;;5.66;100.00
10606;BME280;5350;42.698;23.148;2022-11-15T07:08:37;94104.53;;;5.71;100.00
10606;BME280;5350;42.698;23.148;2022-11-15T07:11:06;94098.25;;;5.72;100.00
10606;BME280;5350;42.698;23.148;2022-11-15T07:13:35;94107.19;;;5.76;100.00
10606;BME280;5350;42.698;23.148;2022-11-15T07:16:03;94107.94;;;5.76;100.00
10606;BME280;5350;42.698;23.148;2022-11-15T07:18:30;94109.53;;;5.77;100.00
10606;BME280;5350;42.698;23.148;2022-11-15T07:21:01;94116.84;;;5.75;100.00
10606;BME280;5350;42.698;23.148;2022-11-15T07:23:28;94116.56;;;5.77;100.00
10606;BME280;5350;42.698;23.148;2022-11-15T07:25:56;94120.97;;;5.71;100.00
10606;BME280;5350;42.698;23.148;2022-11-15T07:28:23;94113.16;;;5.71;100.00
10606;BME280;5350;42.698;23.148;2022-11-15T07:30:51;94105.34;;;5.76;100.00
10606;BME280;5350;42.698;23.148;2022-11-15T07:33:17;94106.41;;;5.80;100.00
10606;BME280;5350;42.698;23.148;2022-11-15T07:35:44;94114.03;;;5.82;100.00
10606;BME280;5350;42.698;23.148;2022-11-15T07:38:14;94109.53;;;5.77;100.00
10606;BME280;5350;42.698;23.148;2022-11-15T07:40:44;94116.38;;;5.83;100.00
10606;BME280;5350;42.698;23.148;2022-11-15T07:43:11;94114.22;;;5.75;100.00
10606;BME280;5350;42.698;23.148;2022-11-15T07:45:41;94120.09;;;5.87;100.00
10606;BME280;5350;42.698;23.148;2022-11-15T07:48:10;94122.97;;;5.86;100.00
10606;BME280;5350;42.698;23.148;2022-11-15T07:50:37;94110.25;;;5.94;100.00
10606;BME280;5350;42.698;23.148;2022-11-15T07:53:08;94120.16;;;5.92;100.00
10606;BME280;5350;42.698;23.148;2022-11-15T07:55:35;94111.03;;;5.95;100.00
10606;BME280;5350;42.698;23.148;2022-11-15T07:58:02;94116.31;;;6.00;100.00
10606;BME280;5350;42.698;23.148;2022-11-15T08:00:30;94109.53;;;6.04;100.00
10606;BME280;5350;42.698;23.148;2022-11-15T08:03:03;94109.59;;;6.09;100.00
10606;BME280;5350;42.698;23.148;2022-11-15T08:05:32;94102.44;;;5.99;100.00
10606;BME280;5350;42.698;23.148;2022-11-15T08:07:59;94106.41;;;6.02;100.00
10606;BME280;5350;42.698;23.148;2022-11-15T08:10:26;94110.66;;;6.13;100.00
10606;BME280;5350;42.698;23.148;2022-11-15T08:12:57;94094.00;;;6.19;100.00
10606;BME280;5350;42.698;23.148;2022-11-15T08:15:24;94102.75;;;6.39;100.00
10606;BME280;5350;42.698;23.148;2022-11-15T08:17:54;94092.88;;;6.47;100.00
10606;BME280;5350;42.698;23.148;2022-11-15T08:20:20;94095.53;;;6.52;100.00
10606;BME280;5350;42.698;23.148;2022-11-15T08:22:48;94081.38;;;6.47;100.00
10606;BME280;5350;42.698;23.148;2022-11-15T08:25:15;94089.81;;;6.55;100.00
10606;BME280;5350;42.698;23.148;2022-11-15T08:27:42;94093.22;;;6.60;100.00
10606;BME280;5350;42.698;23.148;2022-11-15T08:30:10;94096.41;;;6.67;100.00
10606;BME280;5350;42.698;23.148;2022-11-15T08:32:38;94093.56;;;6.74;100.00
10606;BME280;5350;42.698;23.148;2022-11-15T08:35:06;94088.34;;;6.74;100.00
10606;BME280;5350;42.698;23.148;2022-11-15T08:37:32;94091.25;;;6.82;100.00
10606;BME280;5350;42.698;23.148;2022-11-15T08:40:00;94080.31;;;6.95;100.00
10606;BME280;5350;42.698;23.148;2022-11-15T08:42:27;94084.28;;;6.98;100.00
10606;BME280;5350;42.698;23.148;2022-11-15T08:44:54;94072.81;;;7.09;100.00
10606;BME280;5350;42.698;23.148;2022-11-15T08:47:20;94079.09;;;7.13;100.00
10606;BME280;5350;42.698;23.148;2022-11-15T08:49:47;94075.22;;;7.25;100.00
10606;BME280;5350;42.698;23.148;2022-11-15T08:52:14;94070.53;;;7.33;100.00
10606;BME280;5350;42.698;23.148;2022-11-15T08:54:41;94076.28;;;7.30;100.00
10606;BME280;5350;42.698;23.148;2022-11-15T08:57:09;94066.88;;;7.34;100.00
10606;BME280;5350;42.698;23.148;2022-11-15T08:59:35;94071.56;;;7.32;100.00
10606;BME280;5350;42.698;23.148;2022-11-15T09:02:02;94068.19;;;7.41;100.00
10606;BME280;5350;42.698;23.148;2022-11-15T09:04:29;94064.53;;;7.42;100.00
10606;BME280;5350;42.698;23.148;2022-11-15T09:06:56;94057.47;;;7.38;100.00
10606;BME280;5350;42.698;23.148;2022-11-15T09:09:24;94062.16;;;7.41;100.00
10606;BME280;5350;42.698;23.148;2022-11-15T09:11:51;94062.16;;;7.41;100.00
10606;BME280;5350;42.698;23.148;2022-11-15T09:14:19;94049.59;;;7.43;100.00
10606;BME280;5350;42.698;23.148;2022-11-15T09:16:45;94052.22;;;7.43;100.00
10606;BME280;5350;42.698;23.148;2022-11-15T09:19:12;94008.75;;;7.26;100.00
10606;BME280;5350;42.698;23.148;2022-11-15T09:21:40;94038.66;;;7.66;100.00
10606;BME280;5350;42.698;23.148;2022-11-15T09:24:06;94036.81;;;7.66;100.00
10606;BME280;5350;42.698;23.148;2022-11-15T09:26:33;94021.91;;;7.67;100.00
10606;BME280;5350;42.698;23.148;2022-11-15T09:29:00;94032.91;;;7.74;100.00
10606;BME280;5350;42.698;23.148;2022-11-15T09:31:28;94035.00;;;7.87;100.00
10606;BME280;5350;42.698;23.148;2022-11-15T09:33:55;94026.91;;;7.98;100.00
10606;BME280;5350;42.698;23.148;2022-11-15T09:36:22;94033.19;;;8.18;100.00
10606;BME280;5350;42.698;23.148;2022-11-15T09:38:49;94031.31;;;8.18;100.00
10606;BME280;5350;42.698;23.148;2022-11-15T09:41:31;94020.59;;;8.35;100.00
10606;BME280;5350;42.698;23.148;2022-11-15T09:44:11;94030.78;;;8.51;100.00
10606;BME280;5350;42.698;23.148;2022-11-15T09:46:48;94008.22;;;8.60;100.00
10606;BME280;5350;42.698;23.148;2022-11-15T09:49:18;94011.34;;;8.57;100.00
10606;BME280;5350;42.698;23.148;2022-11-15T09:51:49;93992.53;;;8.40;100.00
10606;BME280;5350;42.698;23.148;2022-11-15T09:54:26;94000.91;;;8.52;100.00
10606;BME280;5350;42.698;23.148;2022-11-15T09:56:56;93999.06;;;8.48;100.00
10606;BME280;5350;42.698;23.148;2022-11-15T09:59:40;94003.56;;;8.32;100.00
10606;BME280;5350;42.698;23.148;2022-11-15T10:02:22;93998.31;;;8.27;100.00
10606;BME280;5350;42.698;23.148;2022-11-15T10:04:54;93999.63;;;8.35;100.00
10606;BME280;5350;42.698;23.148;2022-11-15T10:07:25;93990.47;;;8.32;100.00
10606;BME280;5350;42.698;23.148;2022-11-15T10:09:54;93979.97;;;8.32;100.00
10606;BME280;5350;42.698;23.148;2022-11-15T10:12:23;93983.63;;;8.41;100.00
10606;BME280;5350;42.698;23.148;2022-11-15T10:14:57;93980.91;;;8.66;100.00
10606;BME280;5350;42.698;23.148;2022-11-15T10:17:55;93979.28;;;8.80;100.00
10606;BME280;5350;42.698;23.148;2022-11-15T10:20:27;93973.81;;;8.72;100.00
10606;BME280;5350;42.698;23.148;2022-11-15T10:22:58;93972.25;;;8.71;100.00
10606;BME280;5350;42.698;23.148;2022-11-15T10:25:27;93948.91;;;8.69;100.00
10606;BME280;5350;42.698;23.148;2022-11-15T10:27:56;93968.50;;;8.92;100.00
10606;BME280;5350;42.698;23.148;2022-11-15T10:30:28;93960.16;;;8.80;100.00
10606;BME280;5350;42.698;23.148;2022-11-15T10:32:58;93920.09;;;8.64;100.00
10606;BME280;5350;42.698;23.148;2022-11-15T10:35:34;93959.75;;;9.02;100.00
10606;BME280;5350;42.698;23.148;2022-11-15T10:38:06;93951.31;;;9.15;100.00
10606;BME280;5350;42.698;23.148;2022-11-15T10:40:33;93940.31;;;9.08;100.00
10606;BME280;5350;42.698;23.148;2022-11-15T10:43:15;93946.28;;;9.18;100.00
10606;BME280;5350;42.698;23.148;2022-11-15T10:45:42;93939.72;;;9.21;100.00
10606;BME280;5350;42.698;23.148;2022-11-15T10:48:24;93937.38;;;9.19;100.00
10606;BME280;5350;42.698;23.148;2022-11-15T10:50:52;93930.53;;;9.18;100.00
10606;BME280;5350;42.698;23.148;2022-11-15T10:53:27;93935.69;;;9.38;100.00
10606;BME280;5350;42.698;23.148;2022-11-15T10:55:58;93923.56;;;9.42;100.00
10606;BME280;5350;42.698;23.148;2022-11-15T10:58:36;93926.91;;;9.53;100.00
10606;BME280;5350;42.698;23.148;2022-11-15T11:01:15;93923.69;;;9.61;100.00
10606;BME280;5350;42.698;23.148;2022-11-15T11:03:44;93916.69;;;9.80;100.00
10606;BME280;5350;42.698;23.148;2022-11-15T11:06:14;93911.16;;;10.10;100.00
10606;BME280;5350;42.698;23.148;2022-11-15T11:08:53;93905.75;;;10.25;100.00
10606;BME280;5350;42.698;23.148;2022-11-15T11:11:20;93901.78;;;10.28;100.00
10606;BME280;5350;42.698;23.148;2022-11-15T11:13:47;93903.38;;;10.48;100.00
10606;BME280;5350;42.698;23.148;2022-11-15T11:16:23;93915.97;;;10.74;100.00
10606;BME280;5350;42.698;23.148;2022-11-15T11:19:00;93906.31;;;10.88;100.00
10606;BME280;5350;42.698;23.148;2022-11-15T11:21:38;93899.13;;;10.94;100.00
10606;BME280;5350;42.698;23.148;2022-11-15T11:24:13;93893.03;;;11.17;100.00
10606;BME280;5350;42.698;23.148;2022-11-15T11:26:48;93892.16;;;11.40;100.00
10606;BME280;5350;42.698;23.148;2022-11-15T11:29:27;93878.13;;;11.45;97.74
10606;BME280;5350;42.698;23.148;2022-11-15T11:32:03;93878.16;;;11.58;94.03
10606;BME280;5350;42.698;23.148;2022-11-15T11:34:45;93867.84;;;11.62;94.53
10606;BME280;5350;42.698;23.148;2022-11-15T11:37:21;93860.06;;;11.70;95.24
10606;BME280;5350;42.698;23.148;2022-11-15T11:39:59;93854.16;;;11.78;95.77
10606;BME280;5350;42.698;23.148;2022-11-15T11:42:35;93852.34;;;12.20;93.90
10606;BME280;5350;42.698;23.148;2022-11-15T11:45:15;93849.19;;;12.45;93.33
10606;BME280;5350;42.698;23.148;2022-11-15T11:47:47;93824.84;;;12.48;91.15
10606;BME280;5350;42.698;23.148;2022-11-15T11:50:19;93842.97;;;12.90;86.71
10606;BME280;5350;42.698;23.148;2022-11-15T11:52:56;93847.94;;;13.05;85.92
10606;BME280;5350;42.698;23.148;2022-11-15T11:55:27;93840.50;;;13.07;85.50
10606;BME280;5350;42.698;23.148;2022-11-15T11:58:03;93832.34;;;13.17;84.31
10606;BME280;5350;42.698;23.148;2022-11-15T12:00:33;93837.03;;;13.20;82.79
10606;BME280;5350;42.698;23.148;2022-11-15T12:03:08;93831.03;;;13.28;83.19
10606;BME280;5350;42.698;23.148;2022-11-15T12:05:39;93832.78;;;13.33;81.01
10606;BME280;5350;42.698;23.148;2022-11-15T12:08:20;93828.38;;;13.50;81.27
10606;BME280;5350;42.698;23.148;2022-11-15T12:10:54;93817.34;;;13.79;80.15
10606;BME280;5350;42.698;23.148;2022-11-15T12:13:26;93813.38;;;13.90;77.12
10606;BME280;5350;42.698;23.148;2022-11-15T12:16:04;93812.47;;;13.95;76.27
10606;BME280;5350;42.698;23.148;2022-11-15T12:18:32;93814.75;;;14.27;75.93
10606;BME280;5350;42.698;23.148;2022-11-15T12:21:04;93795.84;;;14.42;73.31
10606;BME280;5350;42.698;23.148;2022-11-15T12:23:39;93799.63;;;14.50;72.41
10606;BME280;5350;42.698;23.148;2022-11-15T12:26:08;93796.19;;;14.58;71.74
10606;BME280;5350;42.698;23.148;2022-11-15T12:28:41;93805.41;;;14.60;71.16
10606;BME280;5350;42.698;23.148;2022-11-15T12:31:14;93795.59;;;14.69;71.28
10606;BME280;5350;42.698;23.148;2022-11-15T12:33:44;93796.22;;;14.66;70.02
10606;BME280;5350;42.698;23.148;2022-11-15T12:36:30;93796.03;;;14.63;71.15
10606;BME280;5350;42.698;23.148;2022-11-15T12:39:01;93799.03;;;14.87;69.42
10606;BME280;5350;42.698;23.148;2022-11-15T12:41:29;93785.00;;;14.86;67.82
10606;BME280;5350;42.698;23.148;2022-11-15T12:43:57;93787.19;;;14.84;67.96
10606;BME280;5350;42.698;23.148;2022-11-15T12:46:59;93786.75;;;14.99;67.69
10606;BME280;5350;42.698;23.148;2022-11-15T12:49:45;93758.22;;;14.62;67.15
10606;BME280;5350;42.698;23.148;2022-11-15T12:52:14;93773.16;;;14.92;66.34
10606;BME280;5350;42.698;23.148;2022-11-15T12:57:50;93766.00;;;14.84;66.44
10606;BME280;5350;42.698;23.148;2022-11-15T13:00:42;93764.16;;;14.93;66.46
10606;BME280;5350;42.698;23.148;2022-11-15T13:03:27;93758.34;;;15.00;64.92
10606;BME280;5350;42.698;23.148;2022-11-15T13:06:01;93761.03;;;14.91;65.21
10606;BME280;5350;42.698;23.148;2022-11-15T13:08:47;93756.97;;;15.02;65.45
10606;BME280;5350;42.698;23.148;2022-11-15T13:11:46;93751.66;;;15.02;64.45
10606;BME280;5350;42.698;23.148;2022-11-15T13:14:44;93753.06;;;15.00;63.94
10606;BME280;5350;42.698;23.148;2022-11-15T13:17:24;93743.09;;;14.88;64.65
10606;BME280;5350;42.698;23.148;2022-11-15T13:19:57;93749.19;;;14.80;64.97